Time;durP1;ratioP1;P1;durP2;ratioP2;P2;SDS_P1;SDS_P2;PMS_P1;PMS_P2;Temp;Humidity;BMP_temperature;BMP_pressure;BME280_temperature;BME280_humidity;BME280_pressure;Samples;Min_cycle;Max_cycle;Signal;HPM_P1;HPM_P2
2022/07/07 00:00:38;;;;;;;;;;;;;;;19.34;52.89;100327.25;5070078;28;19916;-80
2022/07/07 00:03:03;;;;;;;;;;;;;;;19.38;52.68;100324.72;5070778;28;20386;-85
2022/07/07 00:05:28;;;;;;;;;;;;;;;19.34;52.71;100321.75;5071297;28;19928;-85
2022/07/07 00:07:53;;;;;;;;;;;;;;;19.28;53.21;100313.88;5071064;28;19916;-85
2022/07/07 00:10:19;;;;;;;;;;;;;;;19.37;53.20;100309.25;5071093;28;20027;-85
2022/07/07 00:12:44;;;;;;;;;;;;;;;19.37;53.20;100306.47;5085454;28;20443;-81
2022/07/07 00:15:09;;;;;;;;;;;;;;;19.34;53.34;100307.13;5087030;28;19969;-80
2022/07/07 00:17:34;;;;;;;;;;;;;;;19.22;53.94;100316.75;5089505;28;19916;-75
2022/07/07 00:19:59;;;;;;;;;;;;;;;19.11;54.18;100307.84;5089615;28;19955;-74
2022/07/07 00:22:25;;;;;;;;;;;;;;;19.13;54.46;100310.31;5090534;28;19917;-87
2022/07/07 00:24:50;;;;;;;;;;;;;;;19.22;54.43;100300.16;5091453;28;20487;-87
2022/07/07 00:27:15;;;;;;;;;;;;;;;19.22;54.47;100299.38;5070075;28;19920;-77
2022/07/07 00:29:43;;;;;;;;;;;;;;;19.23;54.46;100290.75;5069256;28;19924;-77
2022/07/07 00:32:09;;;;;;;;;;;;;;;19.33;54.44;100289.72;5070061;28;20308;-87
2022/07/07 00:34:34;;;;;;;;;;;;;;;19.29;54.67;100294.22;5071186;28;19927;-87
2022/07/07 00:37:00;;;;;;;;;;;;;;;19.30;54.56;100286.75;5088664;28;19951;-87
2022/07/07 00:39:25;;;;;;;;;;;;;;;19.18;55.13;100281.78;5090846;28;19915;-87
2022/07/07 00:41:50;;;;;;;;;;;;;;;19.04;55.58;100265.19;5090698;28;19920;-81
2022/07/07 00:44:17;;;;;;;;;;;;;;;19.05;56.01;100261.28;5082855;28;19940;-80
2022/07/07 00:46:43;;;;;;;;;;;;;;;19.03;56.26;100267.13;5081341;28;19965;-85
2022/07/07 00:49:10;;;;;;;;;;;;;;;19.13;56.04;100264.16;5090407;28;19973;-85
2022/07/07 00:51:35;;;;;;;;;;;;;;;19.13;56.15;100264.16;5090965;28;19969;-85
2022/07/07 00:54:00;;;;;;;;;;;;;;;18.90;56.89;100260.50;5090553;28;20210;-85
2022/07/07 00:56:26;;;;;;;;;;;;;;;18.92;57.23;100257.41;5076992;28;19928;-88
2022/07/07 00:58:51;;;;;;;;;;;;;;;19.11;56.90;100260.06;5070289;28;19932;-87
2022/07/07 01:01:16;;;;;;;;;;;;;;;19.00;57.24;100254.75;5070287;28;19917;-87
2022/07/07 01:03:41;;;;;;;;;;;;;;;18.89;57.65;100250.59;5070829;28;19970;-87
2022/07/07 01:06:06;;;;;;;;;;;;;;;18.85;57.90;100255.09;5082419;28;19924;-87
2022/07/07 01:08:32;;;;;;;;;;;;;;;18.94;57.46;100255.16;5089348;28;19923;-80
2022/07/07 01:10:57;;;;;;;;;;;;;;;18.94;57.48;100244.94;5089078;28;20260;-80
2022/07/07 01:13:22;;;;;;;;;;;;;;;18.79;58.37;100243.34;5090385;28;19998;-84
2022/07/07 01:15:47;;;;;;;;;;;;;;;18.84;58.34;100237.69;5094970;28;19919;-85
2022/07/07 01:18:13;;;;;;;;;;;;;;;18.88;58.49;100235.13;5109426;28;19926;-76
2022/07/07 01:20:41;;;;;;;;;;;;;;;18.95;58.36;100238.31;5109351;28;19916;-76
2022/07/07 01:23:07;;;;;;;;;;;;;;;18.88;58.91;100237.91;5109391;28;19916;-80
2022/07/07 01:25:32;;;;;;;;;;;;;;;18.90;58.89;100230.94;5097570;28;19931;-80
2022/07/07 01:27:57;;;;;;;;;;;;;;;18.81;59.66;100232.00;5069147;28;19916;-75
2022/07/07 01:30:23;;;;;;;;;;;;;;;18.46;60.92;100219.44;5068184;28;19923;-74
2022/07/07 01:32:48;;;;;;;;;;;;;;;18.75;60.49;100220.25;5069023;28;19955;-78
2022/07/07 01:35:13;;;;;;;;;;;;;;;18.83;60.17;100218.69;5068193;28;19920;-77
2022/07/07 01:37:38;;;;;;;;;;;;;;;18.88;60.36;100210.28;5068794;28;19962;-76
2022/07/07 01:40:04;;;;;;;;;;;;;;;18.85;60.39;100216.44;5068696;28;20355;-76
2022/07/07 01:42:29;;;;;;;;;;;;;;;18.81;60.68;100219.00;5081821;28;19974;-76
2022/07/07 01:44:54;;;;;;;;;;;;;;;18.87;60.32;100212.25;5077062;28;19921;-76
2022/07/07 01:47:20;;;;;;;;;;;;;;;18.63;61.06;100218.81;5087547;28;20341;-85
2022/07/07 01:49:46;;;;;;;;;;;;;;;18.78;60.62;100220.44;5090453;28;20366;-84
2022/07/07 01:52:11;;;;;;;;;;;;;;;18.79;60.92;100196.41;5092009;28;19924;-78
2022/07/07 01:54:37;;;;;;;;;;;;;;;18.73;60.79;100187.38;5074747;28;20423;-77
2022/07/07 01:57:03;;;;;;;;;;;;;;;18.86;60.86;100193.19;5074695;28;20007;-86
2022/07/07 01:59:28;;;;;;;;;;;;;;;18.71;61.15;100189.66;5073950;28;19999;-87
2022/07/07 02:01:53;;;;;;;;;;;;;;;18.67;62.30;100192.22;5073878;28;19923;-79
2022/07/07 02:04:19;;;;;;;;;;;;;;;18.61;62.97;100182.41;5072423;28;19917;-78
2022/07/07 02:06:44;;;;;;;;;;;;;;;18.50;63.93;100175.47;5072145;28;20351;-77
2022/07/07 02:09:09;;;;;;;;;;;;;;;18.57;63.38;100169.53;5072258;28;19921;-77
2022/07/07 02:11:35;;;;;;;;;;;;;;;18.53;63.89;100175.66;5078090;28;20363;-78
2022/07/07 02:14:01;;;;;;;;;;;;;;;18.58;64.01;100182.22;5092582;28;20306;-77
2022/07/07 02:16:27;;;;;;;;;;;;;;;18.48;64.47;100181.31;5092991;28;19935;-79
2022/07/07 02:22:07;;;;;;;;;;;;;;;18.52;66.19;100184.28;5091886;28;20386;-76
2022/07/07 02:24:32;;;;;;;;;;;;;;;18.54;66.22;100182.84;5084631;28;19912;-76
2022/07/07 02:26:57;;;;;;;;;;;;;;;18.39;67.04;100174.88;5109968;28;20259;-77
2022/07/07 02:29:23;;;;;;;;;;;;;;;18.42;66.99;100169.56;5112204;28;19947;-77
2022/07/07 02:31:48;;;;;;;;;;;;;;;18.55;66.58;100170.66;5112557;28;20447;-76
2022/07/07 02:34:13;;;;;;;;;;;;;;;18.49;66.61;100168.34;5111475;28;19947;-76
2022/07/07 02:36:38;;;;;;;;;;;;;;;18.41;66.97;100164.34;5082053;28;19959;-85
2022/07/07 02:39:04;;;;;;;;;;;;;;;18.51;66.85;100157.81;5072047;28;19927;-85
2022/07/07 02:41:29;;;;;;;;;;;;;;;18.43;67.19;100160.16;5072743;28;19924;-76
2022/07/07 02:43:54;;;;;;;;;;;;;;;18.51;66.97;100164.13;5070735;28;19928;-75
2022/07/07 02:46:19;;;;;;;;;;;;;;;18.52;67.11;100171.28;5070379;28;20398;-74
2022/07/07 02:48:44;;;;;;;;;;;;;;;18.45;67.54;100162.59;5070906;28;20030;-75
2022/07/07 02:51:09;;;;;;;;;;;;;;;18.40;67.63;100159.97;5070849;28;19916;-75
2022/07/07 02:53:36;;;;;;;;;;;;;;;18.50;67.26;100156.97;5076009;28;19931;-76
2022/07/07 02:56:01;;;;;;;;;;;;;;;18.28;68.09;100155.78;5080248;28;20033;-76
2022/07/07 02:58:27;;;;;;;;;;;;;;;18.15;68.80;100154.63;5073156;28;19974;-87
2022/07/07 03:00:54;;;;;;;;;;;;;;;18.19;69.10;100155.66;5072420;28;19970;-87
2022/07/07 03:03:19;;;;;;;;;;;;;;;18.23;69.05;100161.38;5071987;28;20017;-78
2022/07/07 03:05:45;;;;;;;;;;;;;;;18.27;68.93;100156.91;5069755;28;20407;-77
2022/07/07 03:08:10;;;;;;;;;;;;;;;18.13;69.32;100167.91;5070271;28;19956;-77
2022/07/07 03:10:35;;;;;;;;;;;;;;;18.08;69.51;100155.03;5070667;28;19932;-78
2022/07/07 03:13:00;;;;;;;;;;;;;;;18.19;69.14;100165.88;5070797;28;19921;-75
2022/07/07 03:15:25;;;;;;;;;;;;;;;18.15;70.23;100162.06;5069482;28;19924;-76
2022/07/07 03:17:52;;;;;;;;;;;;;;;17.89;72.89;100162.56;5070138;28;19928;-76
2022/07/07 03:20:17;;;;;;;;;;;;;;;17.76;73.90;100159.50;5070399;28;19923;-76
2022/07/07 03:22:43;;;;;;;;;;;;;;;17.69;74.96;100153.56;5070348;28;19924;-75
2022/07/07 03:25:09;;;;;;;;;;;;;;;17.77;74.72;100150.13;5089194;28;19946;-85
2022/07/07 03:27:35;;;;;;;;;;;;;;;17.78;74.84;100150.91;5092283;28;19961;-84
2022/07/07 03:30:01;;;;;;;;;;;;;;;17.81;74.69;100153.06;5091247;28;19945;-76
2022/07/07 03:32:26;;;;;;;;;;;;;;;17.63;76.22;100141.81;5090699;28;19924;-77
2022/07/07 03:34:51;;;;;;;;;;;;;;;17.66;74.84;100145.88;5090008;28;19916;-77
2022/07/07 03:37:16;;;;;;;;;;;;;;;17.67;74.98;100144.78;5070506;28;19917;-78
2022/07/07 03:39:41;;;;;;;;;;;;;;;17.83;75.20;100154.41;5070213;28;20437;-79
2022/07/07 03:42:07;;;;;;;;;;;;;;;17.99;74.84;100145.00;5070243;28;19916;-79
2022/07/07 03:44:32;;;;;;;;;;;;;;;17.71;76.04;100143.88;5070905;28;20039;-81
2022/07/07 03:46:57;;;;;;;;;;;;;;;17.74;76.41;100140.50;5084919;28;19920;-80
2022/07/07 03:49:22;;;;;;;;;;;;;;;17.57;76.74;100138.34;5090614;28;20358;-77
2022/07/07 03:51:47;;;;;;;;;;;;;;;17.64;76.28;100140.69;5089756;28;19916;-76
2022/07/07 03:54:13;;;;;;;;;;;;;;;17.58;77.02;100131.69;5091155;28;19927;-88
2022/07/07 03:56:38;;;;;;;;;;;;;;;17.47;78.06;100124.75;5076462;28;20402;-88
2022/07/07 03:59:04;;;;;;;;;;;;;;;17.46;77.91;100117.56;5070931;28;19947;-86
2022/07/07 04:01:29;;;;;;;;;;;;;;;17.38;78.30;100119.91;5070927;28;20054;-86
2022/07/07 04:03:54;;;;;;;;;;;;;;;17.43;78.16;100121.75;5070423;28;19923;-79
2022/07/07 04:06:19;;;;;;;;;;;;;;;17.55;78.01;100112.19;5069451;28;20013;-78
2022/07/07 04:08:44;;;;;;;;;;;;;;;17.57;78.18;100115.47;5070153;28;19917;-85
2022/07/07 04:11:09;;;;;;;;;;;;;;;17.56;78.16;100116.56;5071465;28;20096;-85
2022/07/07 04:13:35;;;;;;;;;;;;;;;17.63;77.79;100100.47;5071481;28;19944;-82
2022/07/07 04:16:00;;;;;;;;;;;;;;;17.62;77.91;100098.81;5076530;28;19936;-81
2022/07/07 04:18:25;;;;;;;;;;;;;;;17.70;77.72;100097.28;5089792;28;19933;-87
2022/07/07 04:20:50;;;;;;;;;;;;;;;17.54;78.02;100091.25;5072886;28;19920;-87
2022/07/07 04:23:15;;;;;;;;;;;;;;;17.50;77.93;100082.78;5084582;28;19924;-75
2022/07/07 04:25:41;;;;;;;;;;;;;;;17.64;77.97;100084.72;5081010;28;20292;-74
2022/07/07 04:28:06;;;;;;;;;;;;;;;17.70;77.52;100078.00;5069439;28;20288;-86
2022/07/07 04:30:31;;;;;;;;;;;;;;;17.54;77.98;100074.72;5070500;28;19920;-86
2022/07/07 04:32:57;;;;;;;;;;;;;;;17.61;77.82;100081.47;5052647;28;19920;-77
2022/07/07 04:35:22;;;;;;;;;;;;;;;17.39;78.35;100076.63;5067776;28;19967;-76
2022/07/07 04:37:47;;;;;;;;;;;;;;;17.64;77.56;100076.47;5068839;28;19932;-77
2022/07/07 04:40:12;;;;;;;;;;;;;;;17.50;78.26;100077.28;5068515;28;19917;-77
2022/07/07 04:42:38;;;;;;;;;;;;;;;17.56;78.52;100080.75;5068796;28;19923;-78
2022/07/07 04:45:03;;;;;;;;;;;;;;;17.64;77.80;100080.03;5069802;28;19978;-83
2022/07/07 04:47:28;;;;;;;;;;;;;;;17.85;77.04;100080.47;5070659;28;19932;-83
2022/07/07 04:49:53;;;;;;;;;;;;;;;17.77;76.99;100081.19;5069291;28;19921;-79
2022/07/07 04:52:19;;;;;;;;;;;;;;;17.77;76.72;100089.47;5069128;28;19947;-77
2022/07/07 04:54:44;;;;;;;;;;;;;;;17.70;77.14;100089.03;5082373;28;20434;-75
2022/07/07 04:57:09;;;;;;;;;;;;;;;17.85;76.87;100079.66;5067918;28;19920;-75
2022/07/07 04:59:35;;;;;;;;;;;;;;;17.76;76.90;100085.03;5068273;28;19917;-77
2022/07/07 05:02:00;;;;;;;;;;;;;;;17.79;76.92;100084.44;5068762;28;19920;-77
2022/07/07 05:04:25;;;;;;;;;;;;;;;17.83;77.64;100087.41;5068371;28;19978;-82
2022/07/07 05:06:50;;;;;;;;;;;;;;;17.31;80.55;100088.38;5068748;28;19931;-86
2022/07/07 05:09:15;;;;;;;;;;;;;;;17.39;81.51;100080.22;5069405;28;19923;-87
2022/07/07 05:11:41;;;;;;;;;;;;;;;17.23;81.91;100082.41;5070000;28;20339;-84
2022/07/07 05:14:06;;;;;;;;;;;;;;;17.30;82.29;100093.06;5069473;28;19961;-82
2022/07/07 05:16:31;;;;;;;;;;;;;;;17.22;83.29;100096.50;5068220;28;20125;-81
2022/07/07 05:18:56;;;;;;;;;;;;;;;17.31;83.53;100097.44;5069166;28;20011;-87
2022/07/07 05:21:22;;;;;;;;;;;;;;;17.32;83.58;100104.59;5069395;28;19916;-86
2022/07/07 05:23:47;;;;;;;;;;;;;;;17.32;83.96;100099.09;5074862;28;19920;-82
2022/07/07 05:26:12;;;;;;;;;;;;;;;17.43;83.48;100096.94;5076289;28;19920;-82
2022/07/07 05:28:41;;;;;;;;;;;;;;;17.48;83.31;100099.63;5068894;28;20360;-81
2022/07/07 05:31:06;;;;;;;;;;;;;;;17.60;82.67;100112.09;5068654;28;19960;-82
2022/07/07 05:33:31;;;;;;;;;;;;;;;17.45;83.15;100097.47;5068640;28;19958;-81
2022/07/07 05:35:57;;;;;;;;;;;;;;;17.42;83.89;100105.53;5070633;28;20433;-80
2022/07/07 05:38:22;;;;;;;;;;;;;;;17.51;83.15;100114.75;5068584;28;20117;-86
2022/07/07 05:40:47;;;;;;;;;;;;;;;17.27;83.69;100107.44;5070098;28;20394;-86
2022/07/07 05:43:12;;;;;;;;;;;;;;;17.27;83.52;100112.94;5069763;28;19924;-83
2022/07/07 05:45:37;;;;;;;;;;;;;;;17.34;83.11;100123.56;5067857;28;19924;-79
2022/07/07 05:48:03;;;;;;;;;;;;;;;17.37;83.04;100123.78;5068590;28;19917;-81
2022/07/07 05:50:28;;;;;;;;;;;;;;;17.53;81.79;100128.22;5068382;28;19920;-80
2022/07/07 05:52:53;;;;;;;;;;;;;;;17.59;82.26;100138.81;5067744;28;20212;-81
2022/07/07 05:55:18;;;;;;;;;;;;;;;17.61;81.25;100135.78;5081337;28;19924;-79
2022/07/07 05:57:43;;;;;;;;;;;;;;;17.52;82.34;100130.16;5067726;28;20377;-79
2022/07/07 06:00:09;;;;;;;;;;;;;;;17.43;82.98;100137.50;5067143;28;20461;-79
2022/07/07 06:02:34;;;;;;;;;;;;;;;17.58;82.45;100137.22;5067649;28;19917;-79
2022/07/07 06:04:59;;;;;;;;;;;;;;;17.59;83.01;100133.31;5067661;28;20010;-82
2022/07/07 06:07:25;;;;;;;;;;;;;;;17.79;82.10;100131.31;5066703;28;19963;-81
2022/07/07 06:09:50;;;;;;;;;;;;;;;17.69;82.13;100135.09;5068556;28;19978;-87
2022/07/07 06:12:16;;;;;;;;;;;;;;;17.62;82.75;100137.41;5069067;28;19916;-87
2022/07/07 06:14:41;;;;;;;;;;;;;;;17.63;82.70;100150.09;5068079;28;19943;-81
2022/07/07 06:17:06;;;;;;;;;;;;;;;17.67;83.29;100145.59;5083313;28;19972;-81
2022/07/07 06:19:32;;;;;;;;;;;;;;;17.84;82.56;100147.75;5087547;28;19967;-80
2022/07/07 06:21:57;;;;;;;;;;;;;;;18.09;81.83;100142.88;5087833;28;20421;-80
2022/07/07 06:24:22;;;;;;;;;;;;;;;18.03;82.22;100144.09;5087462;28;20020;-78
2022/07/07 06:26:47;;;;;;;;;;;;;;;17.92;82.23;100145.44;5070726;28;19960;-79
2022/07/07 06:29:13;;;;;;;;;;;;;;;17.81;83.42;100137.34;5066824;28;20387;-79
2022/07/07 06:31:38;;;;;;;;;;;;;;;17.82;83.29;100141.72;5067322;28;19916;-78
2022/07/07 06:34:03;;;;;;;;;;;;;;;17.61;84.11;100144.06;5067279;28;19924;-78
2022/07/07 06:36:28;;;;;;;;;;;;;;;17.77;83.14;100155.63;5065947;28;19932;-78
2022/07/07 06:38:54;;;;;;;;;;;;;;;17.57;83.39;100151.31;5067793;28;20001;-78
2022/07/07 06:41:21;;;;;;;;;;;;;;;17.71;82.74;100162.34;5070881;28;19921;-78
2022/07/07 06:43:46;;;;;;;;;;;;;;;17.50;83.87;100157.19;5071850;28;19920;-88
2022/07/07 06:46:11;;;;;;;;;;;;;;;17.42;83.95;100160.63;5072973;28;19931;-87
2022/07/07 06:48:36;;;;;;;;;;;;;;;17.60;82.87;100162.53;5071906;28;20342;-76
2022/07/07 06:51:02;;;;;;;;;;;;;;;17.58;82.36;100159.25;5070451;28;19928;-76
2022/07/07 06:53:27;;;;;;;;;;;;;;;17.56;82.89;100157.91;5073778;28;19951;-78
2022/07/07 06:55:52;;;;;;;;;;;;;;;17.64;82.74;100156.41;5081113;28;20391;-78
2022/07/07 06:58:17;;;;;;;;;;;;;;;17.66;82.61;100154.16;5070737;28;19921;-88
2022/07/07 07:00:42;;;;;;;;;;;;;;;17.92;81.59;100167.50;5072049;28;19917;-88
2022/07/07 07:03:08;;;;;;;;;;;;;;;18.00;80.74;100157.69;5072364;28;19917;-88
2022/07/07 07:05:34;;;;;;;;;;;;;;;17.92;79.78;100173.00;5073257;28;20033;-88
2022/07/07 07:08:00;;;;;;;;;;;;;;;17.92;80.26;100164.75;5053638;28;19921;-78
2022/07/07 07:10:25;;;;;;;;;;;;;;;17.87;79.28;100170.34;5070392;28;19921;-77
2022/07/07 07:12:50;;;;;;;;;;;;;;;17.82;79.51;100185.84;5070257;28;20345;-77
2022/07/07 07:15:15;;;;;;;;;;;;;;;17.82;79.07;100183.09;5071599;28;20325;-77
2022/07/07 07:17:42;;;;;;;;;;;;;;;17.93;77.13;100183.72;5069521;28;19931;-77
2022/07/07 07:20:08;;;;;;;;;;;;;;;18.22;77.45;100187.38;5070080;28;19921;-78
2022/07/07 07:22:36;;;;;;;;;;;;;;;18.28;76.42;100169.59;5069846;28;19916;-78
2022/07/07 07:25:02;;;;;;;;;;;;;;;18.31;75.79;100196.56;5083281;28;20374;-78
2022/07/07 07:27:27;;;;;;;;;;;;;;;18.38;76.87;100190.63;5069612;28;19924;-78
2022/07/07 07:29:52;;;;;;;;;;;;;;;18.59;74.98;100189.38;5069963;28;19916;-78
2022/07/07 07:32:17;;;;;;;;;;;;;;;18.24;74.79;100207.19;5069973;28;19920;-78
2022/07/07 07:34:42;;;;;;;;;;;;;;;17.57;76.07;100226.56;5070418;28;20133;-81
2022/07/07 07:37:08;;;;;;;;;;;;;;;17.25;78.89;100236.41;5083563;28;19947;-81
2022/07/07 07:39:34;;;;;;;;;;;;;;;16.96;79.14;100238.16;5091151;28;19916;-84
2022/07/07 07:41:59;;;;;;;;;;;;;;;16.75;79.38;100241.19;5091222;28;19924;-85
2022/07/07 07:47:08;;;;;;;;;;;;;;;17.24;75.65;100254.88;5072986;28;19931;-79
2022/07/07 07:49:33;;;;;;;;;;;;;;;17.27;76.94;100253.44;5069179;28;20452;-79
2022/07/07 07:51:58;;;;;;;;;;;;;;;17.18;77.26;100255.25;5069345;28;19959;-78
2022/07/07 07:54:23;;;;;;;;;;;;;;;17.41;76.34;100255.47;5080695;28;19920;-87
2022/07/07 07:56:48;;;;;;;;;;;;;;;17.57;76.45;100248.59;5085019;28;19950;-87
2022/07/07 07:59:14;;;;;;;;;;;;;;;17.74;77.91;100250.78;5090403;28;20014;-78
2022/07/07 08:01:39;;;;;;;;;;;;;;;17.80;76.22;100247.94;5088857;28;20402;-77
2022/07/07 08:04:05;;;;;;;;;;;;;;;17.73;77.41;100253.84;5089377;28;20354;-77
2022/07/07 08:06:30;;;;;;;;;;;;;;;17.97;76.80;100252.88;5076669;28;20007;-78
2022/07/07 08:08:55;;;;;;;;;;;;;;;17.97;76.83;100247.38;5068753;28;19923;-79
2022/07/07 08:11:21;;;;;;;;;;;;;;;18.24;75.42;100245.00;5069171;28;19924;-78
2022/07/07 08:13:46;;;;;;;;;;;;;;;18.38;75.40;100245.81;5069775;28;19924;-88
2022/07/07 08:16:11;;;;;;;;;;;;;;;18.49;74.94;100251.94;5069878;28;19920;-88
2022/07/07 08:18:36;;;;;;;;;;;;;;;18.57;74.23;100249.59;5070327;28;19927;-78
2022/07/07 08:21:02;;;;;;;;;;;;;;;18.69;75.32;100252.66;5068199;28;19917;-78
2022/07/07 08:23:27;;;;;;;;;;;;;;;18.44;75.06;100249.28;5071531;28;19924;-82
2022/07/07 08:25:52;;;;;;;;;;;;;;;18.29;74.42;100259.50;5080316;28;19934;-82
2022/07/07 08:28:17;;;;;;;;;;;;;;;18.15;74.42;100258.63;5070010;28;19920;-87
2022/07/07 08:30:42;;;;;;;;;;;;;;;17.95;75.32;100271.69;5070088;28;19955;-87
2022/07/07 08:33:08;;;;;;;;;;;;;;;17.97;73.08;100275.78;5069567;28;20113;-79
2022/07/07 08:35:33;;;;;;;;;;;;;;;18.00;71.93;100277.09;5067286;28;20033;-78
2022/07/07 08:37:58;;;;;;;;;;;;;;;18.15;69.92;100278.78;5067905;28;20015;-78
2022/07/07 08:40:24;;;;;;;;;;;;;;;18.02;70.33;100277.63;5068433;28;19920;-78
2022/07/07 08:42:49;;;;;;;;;;;;;;;17.99;70.61;100293.94;5068592;28;19920;-78
2022/07/07 08:45:15;;;;;;;;;;;;;;;18.00;69.80;100301.91;5070165;28;20466;-78
2022/07/07 08:47:40;;;;;;;;;;;;;;;17.96;70.17;100300.88;5068561;28;20030;-78
2022/07/07 08:50:05;;;;;;;;;;;;;;;18.27;70.01;100311.41;5069184;28;19916;-83
2022/07/07 08:52:31;;;;;;;;;;;;;;;18.73;69.08;100310.84;5069267;28;19927;-83
2022/07/07 08:54:57;;;;;;;;;;;;;;;19.22;67.15;100304.91;5084535;28;20236;-88
2022/07/07 08:57:23;;;;;;;;;;;;;;;19.19;66.76;100311.84;5072558;28;20299;-88
2022/07/07 08:59:48;;;;;;;;;;;;;;;19.29;66.19;100321.03;5069137;28;19927;-84
2022/07/07 09:02:13;;;;;;;;;;;;;;;19.36;65.96;100310.38;5068467;28;19942;-84
2022/07/07 09:04:38;;;;;;;;;;;;;;;19.01;65.57;100299.78;5068141;28;19924;-77
2022/07/07 09:07:04;;;;;;;;;;;;;;;18.82;66.55;100309.00;5082183;28;19930;-77
2022/07/07 09:09:35;;;;;;;;;;;;;;;18.59;66.11;100305.34;5087833;28;19920;-78
2022/07/07 09:12:01;;;;;;;;;;;;;;;18.59;67.18;100325.47;5088400;28;19922;-78
2022/07/07 09:14:33;;;;;;;;;;;;;;;18.61;67.69;100317.69;5089116;28;19920;-84
2022/07/07 09:16:59;;;;;;;;;;;;;;;18.08;69.72;100317.78;5083553;28;19924;-84
2022/07/07 09:19:24;;;;;;;;;;;;;;;18.50;70.31;100330.88;5088422;28;19931;-78
2022/07/07 09:21:51;;;;;;;;;;;;;;;18.83;69.35;100337.44;5087449;28;21420;-78
2022/07/07 09:24:16;;;;;;;;;;;;;;;19.10;68.89;100331.06;5097505;28;19920;-85
2022/07/07 09:26:45;;;;;;;;;;;;;;;19.03;68.20;100344.50;5078068;28;19964;-85
2022/07/07 09:29:14;;;;;;;;;;;;;;;19.37;66.45;100345.19;5068875;28;19989;-82
2022/07/07 09:31:57;;;;;;;;;;;;;;;19.57;66.29;100343.06;5068090;28;19920;-82
2022/07/07 09:34:23;;;;;;;;;;;;;;;19.84;65.64;100346.88;5068922;28;20051;-84
2022/07/07 09:39:58;;;;;;;;;;;;;;;19.33;66.06;100355.22;5088070;28;19924;-78
2022/07/07 09:42:25;;;;;;;;;;;;;;;18.67;67.47;100359.84;5084924;28;19920;-78
2022/07/07 09:44:52;;;;;;;;;;;;;;;18.59;67.49;100360.56;5088257;28;19927;-77
2022/07/07 09:47:21;;;;;;;;;;;;;;;18.65;68.15;100376.69;5051927;28;19932;-77
2022/07/07 09:50:04;;;;;;;;;;;;;;;19.25;67.21;100365.91;5068832;28;20337;-84
2022/07/07 09:52:30;;;;;;;;;;;;;;;19.59;65.79;100371.25;5068743;28;19960;-84
2022/07/07 09:54:56;;;;;;;;;;;;;;;19.69;65.68;100370.19;5081300;28;20418;-77
2022/07/07 09:57:21;;;;;;;;;;;;;;;19.67;65.63;100376.03;5066096;28;20380;-76
2022/07/07 09:59:46;;;;;;;;;;;;;;;20.17;64.04;100366.03;5067104;28;19927;-77
2022/07/07 10:02:22;;;;;;;;;;;;;;;20.00;64.27;100375.00;5066865;28;19971;-78
2022/07/07 10:04:49;;;;;;;;;;;;;;;20.07;64.06;100382.88;5067537;28;20039;-77
2022/07/07 10:07:16;;;;;;;;;;;;;;;19.97;64.36;100383.09;5066009;28;20236;-77
2022/07/07 10:09:42;;;;;;;;;;;;;;;19.85;63.93;100392.78;5068338;28;19924;-87
2022/07/07 10:12:07;;;;;;;;;;;;;;;19.74;64.37;100394.16;5068215;28;19962;-87
2022/07/07 10:14:39;;;;;;;;;;;;;;;19.58;64.06;100394.50;5073993;28;20382;-76
2022/07/07 10:17:04;;;;;;;;;;;;;;;19.80;65.21;100402.03;5076288;28;20330;-76
2022/07/07 10:19:30;;;;;;;;;;;;;;;20.03;64.11;100399.28;5074503;28;19920;-86
2022/07/07 10:21:56;;;;;;;;;;;;;;;19.57;64.30;100398.38;5072966;28;20405;-86
2022/07/07 10:24:22;;;;;;;;;;;;;;;19.48;65.28;100396.38;5082444;28;20132;-78
2022/07/07 10:26:48;;;;;;;;;;;;;;;19.30;65.41;100411.13;5085140;28;20132;-79
2022/07/07 10:29:13;;;;;;;;;;;;;;;18.76;68.07;100420.69;5091498;28;19916;-93
2022/07/07 10:31:39;;;;;;;;;;;;;;;18.20;70.17;100413.09;5091953;28;20040;-84
2022/07/07 10:34:04;;;;;;;;;;;;;;;18.44;68.75;100428.72;5091633;28;20598;-77
2022/07/07 10:36:48;;;;;;;;;;;;;;;18.92;67.45;100418.47;5075757;28;19921;-78
2022/07/07 10:39:13;;;;;;;;;;;;;;;19.32;65.67;100428.22;5070078;28;19920;-76
2022/07/07 10:41:40;;;;;;;;;;;;;;;19.09;65.77;100419.81;5070441;28;19927;-76
2022/07/07 10:44:09;;;;;;;;;;;;;;;19.62;65.42;100427.88;5070475;28;19939;-78
2022/07/07 10:46:34;;;;;;;;;;;;;;;20.20;62.77;100430.19;5081553;28;19924;-79
2022/07/07 10:49:12;;;;;;;;;;;;;;;20.34;63.13;100419.84;5091956;28;19972;-85
2022/07/07 10:52:03;;;;;;;;;;;;;;;20.82;62.24;100425.84;5092089;28;19916;-85
2022/07/07 10:54:34;;;;;;;;;;;;;;;20.44;63.44;100429.06;5089484;28;19947;-88
2022/07/07 10:56:59;;;;;;;;;;;;;;;20.71;63.35;100432.78;5073781;28;20001;-88
2022/07/07 10:59:25;;;;;;;;;;;;;;;20.75;62.28;100434.59;5072491;28;19916;-88
2022/07/07 11:02:02;;;;;;;;;;;;;;;20.63;62.49;100443.50;5071718;28;19928;-88
2022/07/07 11:04:48;;;;;;;;;;;;;;;20.76;62.30;100446.50;5071132;28;20419;-79
2022/07/07 11:07:15;;;;;;;;;;;;;;;20.74;61.63;100448.78;5069597;28;20003;-79
2022/07/07 11:10:13;;;;;;;;;;;;;;;20.24;61.43;100437.53;5070138;28;20130;-76
2022/07/07 11:12:38;;;;;;;;;;;;;;;19.47;62.89;100450.00;5025112;28;19920;-77
2022/07/07 11:15:15;;;;;;;;;;;;;;;19.22;63.61;100459.66;5070607;28;20223;-78
2022/07/07 11:17:41;;;;;;;;;;;;;;;19.40;62.66;100460.69;5090272;28;19915;-78
2022/07/07 11:20:13;;;;;;;;;;;;;;;19.23;62.92;100461.28;5090444;28;20386;-76
2022/07/07 11:22:44;;;;;;;;;;;;;;;19.62;62.51;100467.41;5089715;28;19920;-77
2022/07/07 11:25:10;;;;;;;;;;;;;;;19.84;62.14;100465.84;5086614;28;19974;-76
2022/07/07 11:27:36;;;;;;;;;;;;;;;20.21;61.54;100463.09;5069592;28;19960;-76
2022/07/07 11:30:01;;;;;;;;;;;;;;;20.25;61.04;100461.34;5070007;28;19924;-78
2022/07/07 11:32:34;;;;;;;;;;;;;;;20.91;59.88;100472.97;5069434;28;19917;-78
2022/07/07 11:35:03;;;;;;;;;;;;;;;21.23;58.52;100453.59;5069188;28;19930;-79
2022/07/07 11:37:31;;;;;;;;;;;;;;;21.11;58.75;100454.19;5069171;28;19990;-78
2022/07/07 11:39:56;;;;;;;;;;;;;;;21.10;58.34;100466.41;5069613;28;19920;-75
2022/07/07 11:42:21;;;;;;;;;;;;;;;21.31;58.39;100461.13;5069094;28;20404;-75
2022/07/07 11:44:47;;;;;;;;;;;;;;;20.78;58.17;100458.09;5069487;28;19946;-76
2022/07/07 11:47:12;;;;;;;;;;;;;;;20.40;59.87;100467.63;5071237;28;20007;-75
2022/07/07 11:49:39;;;;;;;;;;;;;;;20.46;60.71;100468.31;5069890;28;19928;-78
2022/07/07 11:52:04;;;;;;;;;;;;;;;20.44;59.94;100465.06;5069122;28;20128;-78
2022/07/07 11:54:29;;;;;;;;;;;;;;;20.29;60.75;100472.59;5082472;28;20339;-86
2022/07/07 11:56:55;;;;;;;;;;;;;;;19.93;60.43;100477.78;5085915;28;20461;-86
2022/07/07 11:59:23;;;;;;;;;;;;;;;19.81;62.73;100483.88;5090980;28;19969;-86
2022/07/07 12:01:50;;;;;;;;;;;;;;;19.87;62.66;100481.78;5090989;28;20394;-86
2022/07/07 12:04:16;;;;;;;;;;;;;;;20.01;63.02;100484.56;5091401;28;19916;-88
2022/07/07 12:06:42;;;;;;;;;;;;;;;19.89;64.44;100493.38;5078114;28;19925;-88
2022/07/07 12:09:07;;;;;;;;;;;;;;;20.26;63.72;100490.63;5069718;28;19924;-78
2022/07/07 12:11:37;;;;;;;;;;;;;;;20.68;63.33;100488.81;5069014;28;19916;-77
2022/07/07 12:14:02;;;;;;;;;;;;;;;21.01;62.00;100494.09;5051210;28;19916;-80
2022/07/07 12:16:39;;;;;;;;;;;;;;;20.84;62.47;100492.84;5067928;28;19921;-79
2022/07/07 12:19:05;;;;;;;;;;;;;;;20.76;61.91;100496.38;5068670;28;19925;-76
2022/07/07 12:21:30;;;;;;;;;;;;;;;20.50;63.07;100499.78;5068437;28;19916;-76
2022/07/07 12:23:56;;;;;;;;;;;;;;;20.13;62.72;100497.88;5075960;28;19916;-78
2022/07/07 12:26:25;;;;;;;;;;;;;;;20.03;64.63;100500.84;5075438;28;19920;-78
2022/07/07 12:28:50;;;;;;;;;;;;;;;19.81;66.45;100508.75;5069293;28;20030;-88
2022/07/07 12:31:19;;;;;;;;;;;;;;;20.04;64.43;100505.22;5070123;28;19946;-88
2022/07/07 12:33:45;;;;;;;;;;;;;;;20.79;61.87;100511.56;5069370;28;20721;-77
2022/07/07 12:36:11;;;;;;;;;;;;;;;21.03;60.29;100508.44;5056433;28;20224;-77
2022/07/07 12:38:46;;;;;;;;;;;;;;;20.85;60.09;100511.09;5088585;28;19923;-80